sensor_id;sensor_type;location;lat;lon;timestamp;P1;durP1;ratioP1;P2;durP2;ratioP2
26303;SDS011;57113;48.680;8.890;2023-04-15T00:01:06;7.28;;;2.22;;
26303;SDS011;57113;48.680;8.890;2023-04-15T00:03:32;6.35;;;2.17;;
26303;SDS011;57113;48.680;8.890;2023-04-15T00:05:58;3.58;;;1.73;;
26303;SDS011;57113;48.680;8.890;2023-04-15T00:08:24;4.35;;;2.10;;
26303;SDS011;57113;48.680;8.890;2023-04-15T00:10:49;4.32;;;1.75;;
26303;SDS011;57113;48.680;8.890;2023-04-15T00:13:15;5.40;;;2.13;;
26303;SDS011;57113;48.680;8.890;2023-04-15T00:15:40;6.78;;;2.17;;
26303;SDS011;57113;48.680;8.890;2023-04-15T00:18:07;4.65;;;1.83;;
26303;SDS011;57113;48.680;8.890;2023-04-15T00:20:33;3.58;;;1.75;;
26303;SDS011;57113;48.680;8.890;2023-04-15T00:22:59;5.47;;;2.13;;
26303;SDS011;57113;48.680;8.890;2023-04-15T00:25:26;4.88;;;2.10;;
26303;SDS011;57113;48.680;8.890;2023-04-15T00:27:53;4.22;;;1.77;;
26303;SDS011;57113;48.680;8.890;2023-04-15T00:30:18;6.53;;;2.28;;
26303;SDS011;57113;48.680;8.890;2023-04-15T00:32:44;5.60;;;1.90;;
26303;SDS011;57113;48.680;8.890;2023-04-15T00:35:10;3.42;;;1.77;;
26303;SDS011;57113;48.680;8.890;2023-04-15T00:37:36;6.68;;;2.55;;
26303;SDS011;57113;48.680;8.890;2023-04-15T00:40:02;4.10;;;1.88;;
26303;SDS011;57113;48.680;8.890;2023-04-15T00:42:30;4.82;;;1.85;;
26303;SDS011;57113;48.680;8.890;2023-04-15T00:44:56;4.05;;;1.70;;
26303;SDS011;57113;48.680;8.890;2023-04-15T00:47:21;4.43;;;1.40;;
26303;SDS011;57113;48.680;8.890;2023-04-15T00:49:47;4.75;;;1.70;;
26303;SDS011;57113;48.680;8.890;2023-04-15T00:52:13;4.70;;;1.90;;
26303;SDS011;57113;48.680;8.890;2023-04-15T00:54:38;5.82;;;1.80;;
26303;SDS011;57113;48.680;8.890;2023-04-15T00:57:05;5.85;;;2.00;;
26303;SDS011;57113;48.680;8.890;2023-04-15T00:59:32;8.68;;;2.05;;
26303;SDS011;57113;48.680;8.890;2023-04-15T01:01:58;3.33;;;1.98;;
26303;SDS011;57113;48.680;8.890;2023-04-15T01:04:23;5.90;;;2.10;;
26303;SDS011;57113;48.680;8.890;2023-04-15T01:06:49;3.75;;;1.73;;
26303;SDS011;57113;48.680;8.890;2023-04-15T01:09:16;3.88;;;1.90;;
26303;SDS011;57113;48.680;8.890;2023-04-15T01:11:42;2.85;;;1.63;;
26303;SDS011;57113;48.680;8.890;2023-04-15T01:14:08;4.78;;;1.83;;
26303;SDS011;57113;48.680;8.890;2023-04-15T01:16:35;3.13;;;1.75;;
26303;SDS011;57113;48.680;8.890;2023-04-15T01:19:04;5.55;;;1.73;;
26303;SDS011;57113;48.680;8.890;2023-04-15T01:21:33;5.22;;;1.75;;
26303;SDS011;57113;48.680;8.890;2023-04-15T01:24:02;5.65;;;1.90;;
26303;SDS011;57113;48.680;8.890;2023-04-15T01:26:32;5.25;;;1.65;;
26303;SDS011;57113;48.680;8.890;2023-04-15T01:28:58;4.55;;;1.80;;
26303;SDS011;57113;48.680;8.890;2023-04-15T01:31:24;6.03;;;1.92;;
26303;SDS011;57113;48.680;8.890;2023-04-15T01:33:49;6.10;;;1.90;;
26303;SDS011;57113;48.680;8.890;2023-04-15T01:36:16;3.53;;;1.80;;
26303;SDS011;57113;48.680;8.890;2023-04-15T01:38:41;3.55;;;1.60;;
26303;SDS011;57113;48.680;8.890;2023-04-15T01:41:07;4.05;;;1.60;;
26303;SDS011;57113;48.680;8.890;2023-04-15T01:43:35;4.45;;;1.88;;
26303;SDS011;57113;48.680;8.890;2023-04-15T01:46:01;4.78;;;1.42;;
26303;SDS011;57113;48.680;8.890;2023-04-15T01:48:27;4.88;;;2.03;;
26303;SDS011;57113;48.680;8.890;2023-04-15T01:50:53;5.20;;;1.88;;
26303;SDS011;57113;48.680;8.890;2023-04-15T01:53:22;5.15;;;1.80;;
26303;SDS011;57113;48.680;8.890;2023-04-15T01:55:49;3.97;;;1.70;;
26303;SDS011;57113;48.680;8.890;2023-04-15T01:58:16;4.95;;;1.58;;
26303;SDS011;57113;48.680;8.890;2023-04-15T02:00:42;5.55;;;2.20;;
26303;SDS011;57113;48.680;8.890;2023-04-15T02:03:07;4.47;;;1.90;;
26303;SDS011;57113;48.680;8.890;2023-04-15T02:05:33;5.65;;;2.10;;
26303;SDS011;57113;48.680;8.890;2023-04-15T02:08:00;5.13;;;2.10;;
26303;SDS011;57113;48.680;8.890;2023-04-15T02:10:25;3.63;;;1.70;;
26303;SDS011;57113;48.680;8.890;2023-04-15T02:12:51;6.45;;;1.90;;
26303;SDS011;57113;48.680;8.890;2023-04-15T02:15:18;5.03;;;1.95;;
26303;SDS011;57113;48.680;8.890;2023-04-15T02:17:44;3.92;;;1.70;;
26303;SDS011;57113;48.680;8.890;2023-04-15T02:20:14;3.45;;;1.70;;
26303;SDS011;57113;48.680;8.890;2023-04-15T02:22:40;3.08;;;1.73;;
26303;SDS011;57113;48.680;8.890;2023-04-15T02:25:06;5.72;;;1.70;;
26303;SDS011;57113;48.680;8.890;2023-04-15T02:27:33;6.57;;;1.98;;
26303;SDS011;57113;48.680;8.890;2023-04-15T02:30:00;3.88;;;1.90;;
26303;SDS011;57113;48.680;8.890;2023-04-15T02:32:26;3.83;;;1.83;;
26303;SDS011;57113;48.680;8.890;2023-04-15T02:34:52;4.60;;;2.05;;
26303;SDS011;57113;48.680;8.890;2023-04-15T02:37:18;5.22;;;1.90;;
26303;SDS011;57113;48.680;8.890;2023-04-15T02:39:45;5.05;;;1.70;;
26303;SDS011;57113;48.680;8.890;2023-04-15T02:42:10;3.53;;;1.75;;
26303;SDS011;57113;48.680;8.890;2023-04-15T02:44:37;3.42;;;1.80;;
26303;SDS011;57113;48.680;8.890;2023-04-15T02:47:02;4.63;;;2.00;;
26303;SDS011;57113;48.680;8.890;2023-04-15T02:49:30;4.38;;;1.70;;
26303;SDS011;57113;48.680;8.890;2023-04-15T02:51:56;3.47;;;1.70;;
26303;SDS011;57113;48.680;8.890;2023-04-15T02:54:22;3.88;;;1.80;;
26303;SDS011;57113;48.680;8.890;2023-04-15T02:56:48;2.60;;;1.38;;
26303;SDS011;57113;48.680;8.890;2023-04-15T02:59:14;4.78;;;1.85;;
26303;SDS011;57113;48.680;8.890;2023-04-15T03:01:40;4.00;;;1.92;;
26303;SDS011;57113;48.680;8.890;2023-04-15T03:04:06;3.25;;;1.70;;
26303;SDS011;57113;48.680;8.890;2023-04-15T03:06:33;4.45;;;1.90;;
26303;SDS011;57113;48.680;8.890;2023-04-15T03:08:59;5.30;;;1.60;;
26303;SDS011;57113;48.680;8.890;2023-04-15T03:11:26;3.13;;;1.75;;
26303;SDS011;57113;48.680;8.890;2023-04-15T03:13:53;6.10;;;1.80;;
26303;SDS011;57113;48.680;8.890;2023-04-15T03:16:18;4.82;;;1.65;;
26303;SDS011;57113;48.680;8.890;2023-04-15T03:18:44;3.42;;;1.88;;
26303;SDS011;57113;48.680;8.890;2023-04-15T03:21:09;3.53;;;1.55;;
26303;SDS011;57113;48.680;8.890;2023-04-15T03:23:36;4.57;;;2.08;;
26303;SDS011;57113;48.680;8.890;2023-04-15T03:26:01;5.65;;;1.90;;
26303;SDS011;57113;48.680;8.890;2023-04-15T03:28:27;4.18;;;1.60;;
26303;SDS011;57113;48.680;8.890;2023-04-15T03:30:54;5.43;;;2.10;;
26303;SDS011;57113;48.680;8.890;2023-04-15T03:33:19;4.93;;;2.00;;
26303;SDS011;57113;48.680;8.890;2023-04-15T03:35:45;4.45;;;1.73;;
26303;SDS011;57113;48.680;8.890;2023-04-15T03:38:11;5.25;;;1.50;;
26303;SDS011;57113;48.680;8.890;2023-04-15T03:40:37;5.15;;;1.85;;
26303;SDS011;57113;48.680;8.890;2023-04-15T03:43:05;5.72;;;1.80;;
26303;SDS011;57113;48.680;8.890;2023-04-15T03:45:30;2.70;;;1.50;;
26303;SDS011;57113;48.680;8.890;2023-04-15T03:47:56;5.32;;;1.55;;
26303;SDS011;57113;48.680;8.890;2023-04-15T03:50:22;3.05;;;1.52;;
26303;SDS011;57113;48.680;8.890;2023-04-15T03:52:47;3.95;;;1.55;;
26303;SDS011;57113;48.680;8.890;2023-04-15T03:55:13;4.68;;;1.60;;
26303;SDS011;57113;48.680;8.890;2023-04-15T03:57:39;4.38;;;2.10;;
26303;SDS011;57113;48.680;8.890;2023-04-15T04:00:05;4.82;;;1.38;;
26303;SDS011;57113;48.680;8.890;2023-04-15T04:02:33;3.90;;;1.55;;
26303;SDS011;57113;48.680;8.890;2023-04-15T04:04:59;2.92;;;1.45;;
26303;SDS011;57113;48.680;8.890;2023-04-15T04:07:24;4.57;;;1.80;;
26303;SDS011;57113;48.680;8.890;2023-04-15T04:09:50;5.35;;;1.77;;
26303;SDS011;57113;48.680;8.890;2023-04-15T04:12:16;5.95;;;1.73;;
26303;SDS011;57113;48.680;8.890;2023-04-15T04:14:41;4.47;;;1.40;;
26303;SDS011;57113;48.680;8.890;2023-04-15T04:17:07;3.28;;;1.58;;
26303;SDS011;57113;48.680;8.890;2023-04-15T04:19:33;5.60;;;2.00;;
26303;SDS011;57113;48.680;8.890;2023-04-15T04:21:59;3.70;;;1.63;;
26303;SDS011;57113;48.680;8.890;2023-04-15T04:24:25;5.80;;;2.00;;
26303;SDS011;57113;48.680;8.890;2023-04-15T04:26:50;4.20;;;1.67;;
26303;SDS011;57113;48.680;8.890;2023-04-15T04:29:16;3.63;;;1.63;;
26303;SDS011;57113;48.680;8.890;2023-04-15T04:31:42;3.72;;;1.38;;
26303;SDS011;57113;48.680;8.890;2023-04-15T04:34:07;5.85;;;1.60;;
26303;SDS011;57113;48.680;8.890;2023-04-15T04:36:33;3.75;;;1.50;;
26303;SDS011;57113;48.680;8.890;2023-04-15T04:38:58;3.53;;;1.65;;
26303;SDS011;57113;48.680;8.890;2023-04-15T04:41:25;4.55;;;1.80;;
26303;SDS011;57113;48.680;8.890;2023-04-15T04:43:51;3.25;;;1.60;;
26303;SDS011;57113;48.680;8.890;2023-04-15T04:46:16;3.55;;;1.80;;
26303;SDS011;57113;48.680;8.890;2023-04-15T04:48:42;3.13;;;1.65;;
26303;SDS011;57113;48.680;8.890;2023-04-15T04:51:07;6.15;;;1.70;;
26303;SDS011;57113;48.680;8.890;2023-04-15T04:53:33;3.38;;;1.80;;
26303;SDS011;57113;48.680;8.890;2023-04-15T04:56:01;7.22;;;1.77;;
26303;SDS011;57113;48.680;8.890;2023-04-15T04:58:27;4.88;;;1.65;;
26303;SDS011;57113;48.680;8.890;2023-04-15T05:00:53;4.10;;;1.70;;
26303;SDS011;57113;48.680;8.890;2023-04-15T05:03:18;5.13;;;1.75;;
26303;SDS011;57113;48.680;8.890;2023-04-15T05:05:44;3.97;;;1.73;;
26303;SDS011;57113;48.680;8.890;2023-04-15T05:08:10;8.57;;;1.88;;
26303;SDS011;57113;48.680;8.890;2023-04-15T05:10:36;3.22;;;1.80;;
26303;SDS011;57113;48.680;8.890;2023-04-15T05:13:01;5.88;;;1.80;;
26303;SDS011;57113;48.680;8.890;2023-04-15T05:15:27;3.67;;;1.88;;
26303;SDS011;57113;48.680;8.890;2023-04-15T05:17:53;3.65;;;2.10;;
26303;SDS011;57113;48.680;8.890;2023-04-15T05:20:19;6.95;;;2.00;;
26303;SDS011;57113;48.680;8.890;2023-04-15T05:22:44;5.35;;;1.70;;
26303;SDS011;57113;48.680;8.890;2023-04-15T05:25:10;5.53;;;1.90;;
26303;SDS011;57113;48.680;8.890;2023-04-15T05:27:36;5.90;;;1.70;;
26303;SDS011;57113;48.680;8.890;2023-04-15T05:30:02;3.65;;;1.45;;
26303;SDS011;57113;48.680;8.890;2023-04-15T05:32:28;2.95;;;1.40;;
26303;SDS011;57113;48.680;8.890;2023-04-15T05:34:53;3.50;;;1.65;;
26303;SDS011;57113;48.680;8.890;2023-04-15T05:37:19;5.25;;;1.50;;
26303;SDS011;57113;48.680;8.890;2023-04-15T05:39:46;6.18;;;1.88;;
26303;SDS011;57113;48.680;8.890;2023-04-15T05:42:12;6.03;;;1.90;;
26303;SDS011;57113;48.680;8.890;2023-04-15T05:44:38;3.35;;;1.70;;
26303;SDS011;57113;48.680;8.890;2023-04-15T05:47:03;5.40;;;2.25;;
26303;SDS011;57113;48.680;8.890;2023-04-15T05:49:29;6.25;;;2.60;;
26303;SDS011;57113;48.680;8.890;2023-04-15T05:51:55;5.85;;;3.00;;
26303;SDS011;57113;48.680;8.890;2023-04-15T05:54:21;4.07;;;2.10;;
26303;SDS011;57113;48.680;8.890;2023-04-15T05:56:47;4.88;;;1.95;;
26303;SDS011;57113;48.680;8.890;2023-04-15T05:59:14;7.35;;;2.35;;
26303;SDS011;57113;48.680;8.890;2023-04-15T06:01:40;6.55;;;2.08;;
26303;SDS011;57113;48.680;8.890;2023-04-15T06:04:05;4.00;;;2.50;;
26303;SDS011;57113;48.680;8.890;2023-04-15T06:06:31;4.45;;;2.17;;
26303;SDS011;57113;48.680;8.890;2023-04-15T06:08:57;5.85;;;2.13;;
26303;SDS011;57113;48.680;8.890;2023-04-15T06:11:23;3.90;;;1.90;;
26303;SDS011;57113;48.680;8.890;2023-04-15T06:13:48;4.47;;;2.10;;
26303;SDS011;57113;48.680;8.890;2023-04-15T06:16:14;4.43;;;1.95;;
26303;SDS011;57113;48.680;8.890;2023-04-15T06:18:40;8.88;;;2.30;;
26303;SDS011;57113;48.680;8.890;2023-04-15T06:21:05;6.13;;;1.90;;
26303;SDS011;57113;48.680;8.890;2023-04-15T06:23:35;4.05;;;1.92;;
26303;SDS011;57113;48.680;8.890;2023-04-15T06:26:01;5.72;;;2.40;;
26303;SDS011;57113;48.680;8.890;2023-04-15T06:28:27;4.20;;;1.90;;
26303;SDS011;57113;48.680;8.890;2023-04-15T06:30:53;3.25;;;1.70;;
26303;SDS011;57113;48.680;8.890;2023-04-15T06:33:19;3.97;;;2.00;;
26303;SDS011;57113;48.680;8.890;2023-04-15T06:35:45;4.35;;;2.40;;
26303;SDS011;57113;48.680;8.890;2023-04-15T06:38:11;3.50;;;1.88;;
26303;SDS011;57113;48.680;8.890;2023-04-15T06:40:37;6.75;;;2.17;;
26303;SDS011;57113;48.680;8.890;2023-04-15T06:43:02;4.50;;;1.92;;
26303;SDS011;57113;48.680;8.890;2023-04-15T06:45:29;3.75;;;1.80;;
26303;SDS011;57113;48.680;8.890;2023-04-15T06:47:55;3.53;;;2.10;;
26303;SDS011;57113;48.680;8.890;2023-04-15T06:50:21;3.85;;;2.00;;
26303;SDS011;57113;48.680;8.890;2023-04-15T06:52:46;5.47;;;2.33;;
26303;SDS011;57113;48.680;8.890;2023-04-15T06:55:12;3.28;;;1.90;;
26303;SDS011;57113;48.680;8.890;2023-04-15T06:57:38;3.17;;;1.75;;
26303;SDS011;57113;48.680;8.890;2023-04-15T07:00:04;3.75;;;1.63;;
26303;SDS011;57113;48.680;8.890;2023-04-15T07:02:32;2.65;;;1.73;;
26303;SDS011;57113;48.680;8.890;2023-04-15T07:04:58;5.53;;;1.90;;
26303;SDS011;57113;48.680;8.890;2023-04-15T07:07:23;3.80;;;1.70;;
26303;SDS011;57113;48.680;8.890;2023-04-15T07:09:49;4.55;;;2.00;;
26303;SDS011;57113;48.680;8.890;2023-04-15T07:12:17;5.50;;;1.95;;
26303;SDS011;57113;48.680;8.890;2023-04-15T07:14:43;4.75;;;2.20;;
26303;SDS011;57113;48.680;8.890;2023-04-15T07:17:09;7.97;;;1.90;;
26303;SDS011;57113;48.680;8.890;2023-04-15T07:19:34;4.30;;;1.83;;
26303;SDS011;57113;48.680;8.890;2023-04-15T07:22:00;5.93;;;2.00;;
26303;SDS011;57113;48.680;8.890;2023-04-15T07:24:26;4.80;;;2.00;;
26303;SDS011;57113;48.680;8.890;2023-04-15T07:26:54;4.22;;;1.55;;
26303;SDS011;57113;48.680;8.890;2023-04-15T07:29:21;4.45;;;2.22;;
26303;SDS011;57113;48.680;8.890;2023-04-15T07:31:47;5.43;;;2.00;;
26303;SDS011;57113;48.680;8.890;2023-04-15T07:34:13;2.53;;;1.50;;
26303;SDS011;57113;48.680;8.890;2023-04-15T07:36:38;5.50;;;1.92;;
26303;SDS011;57113;48.680;8.890;2023-04-15T07:39:05;2.90;;;1.45;;
26303;SDS011;57113;48.680;8.890;2023-04-15T07:41:30;3.05;;;1.55;;
26303;SDS011;57113;48.680;8.890;2023-04-15T07:43:56;3.53;;;1.65;;
26303;SDS011;57113;48.680;8.890;2023-04-15T07:46:21;2.88;;;1.55;;
26303;SDS011;57113;48.680;8.890;2023-04-15T07:48:48;3.67;;;1.80;;
26303;SDS011;57113;48.680;8.890;2023-04-15T07:51:14;4.43;;;1.70;;
26303;SDS011;57113;48.680;8.890;2023-04-15T07:53:41;3.15;;;1.60;;
26303;SDS011;57113;48.680;8.890;2023-04-15T07:56:08;2.45;;;1.50;;
26303;SDS011;57113;48.680;8.890;2023-04-15T07:58:34;2.42;;;1.50;;
26303;SDS011;57113;48.680;8.890;2023-04-15T08:01:00;4.43;;;1.55;;
26303;SDS011;57113;48.680;8.890;2023-04-15T08:03:25;3.47;;;1.58;;
26303;SDS011;57113;48.680;8.890;2023-04-15T08:05:51;3.33;;;1.52;;
26303;SDS011;57113;48.680;8.890;2023-04-15T08:08:18;3.75;;;1.33;;
26303;SDS011;57113;48.680;8.890;2023-04-15T08:10:43;2.78;;;1.52;;
26303;SDS011;57113;48.680;8.890;2023-04-15T08:13:09;4.82;;;1.45;;
26303;SDS011;57113;48.680;8.890;2023-04-15T08:15:35;3.88;;;1.45;;
26303;SDS011;57113;48.680;8.890;2023-04-15T08:18:01;2.70;;;1.50;;
26303;SDS011;57113;48.680;8.890;2023-04-15T08:20:27;2.67;;;1.20;;
26303;SDS011;57113;48.680;8.890;2023-04-15T08:22:53;2.25;;;1.20;;
26303;SDS011;57113;48.680;8.890;2023-04-15T08:25:19;5.00;;;1.67;;
26303;SDS011;57113;48.680;8.890;2023-04-15T08:27:45;1.30;;;1.02;;
26303;SDS011;57113;48.680;8.890;2023-04-15T08:30:12;4.72;;;1.38;;
26303;SDS011;57113;48.680;8.890;2023-04-15T08:32:38;3.45;;;1.45;;
26303;SDS011;57113;48.680;8.890;2023-04-15T08:35:04;3.08;;;1.42;;
26303;SDS011;57113;48.680;8.890;2023-04-15T08:37:30;4.22;;;1.63;;
26303;SDS011;57113;48.680;8.890;2023-04-15T08:39:56;2.72;;;1.40;;
26303;SDS011;57113;48.680;8.890;2023-04-15T08:42:29;3.53;;;1.23;;
26303;SDS011;57113;48.680;8.890;2023-04-15T08:44:58;2.38;;;1.20;;
26303;SDS011;57113;48.680;8.890;2023-04-15T08:47:25;2.47;;;1.40;;
26303;SDS011;57113;48.680;8.890;2023-04-15T08:49:55;6.45;;;2.15;;
26303;SDS011;57113;48.680;8.890;2023-04-15T08:52:24;3.13;;;1.48;;
26303;SDS011;57113;48.680;8.890;2023-04-15T08:54:56;2.53;;;1.10;;
26303;SDS011;57113;48.680;8.890;2023-04-15T08:57:25;2.40;;;1.20;;
26303;SDS011;57113;48.680;8.890;2023-04-15T08:59:54;3.03;;;1.40;;
26303;SDS011;57113;48.680;8.890;2023-04-15T09:02:21;5.20;;;1.60;;
26303;SDS011;57113;48.680;8.890;2023-04-15T09:04:49;3.53;;;1.27;;
26303;SDS011;57113;48.680;8.890;2023-04-15T09:07:15;3.38;;;1.33;;
26303;SDS011;57113;48.680;8.890;2023-04-15T09:09:40;2.97;;;1.33;;
26303;SDS011;57113;48.680;8.890;2023-04-15T09:12:06;2.78;;;1.10;;
26303;SDS011;57113;48.680;8.890;2023-04-15T09:14:33;4.20;;;1.52;;
26303;SDS011;57113;48.680;8.890;2023-04-15T09:16:59;3.80;;;1.35;;
26303;SDS011;57113;48.680;8.890;2023-04-15T09:19:26;3.75;;;1.20;;
26303;SDS011;57113;48.680;8.890;2023-04-15T09:21:53;3.00;;;1.25;;
26303;SDS011;57113;48.680;8.890;2023-04-15T09:24:20;3.00;;;1.35;;
26303;SDS011;57113;48.680;8.890;2023-04-15T09:26:46;3.13;;;1.77;;
26303;SDS011;57113;48.680;8.890;2023-04-15T09:29:15;2.63;;;1.25;;
26303;SDS011;57113;48.680;8.890;2023-04-15T09:31:42;4.72;;;1.48;;
26303;SDS011;57113;48.680;8.890;2023-04-15T09:34:08;2.63;;;1.25;;
26303;SDS011;57113;48.680;8.890;2023-04-15T09:39:14;2.58;;;1.02;;
26303;SDS011;57113;48.680;8.890;2023-04-15T09:41:40;4.65;;;1.55;;
26303;SDS011;57113;48.680;8.890;2023-04-15T09:44:07;2.95;;;1.20;;
26303;SDS011;57113;48.680;8.890;2023-04-15T09:46:50;1.80;;;1.15;;
26303;SDS011;57113;48.680;8.890;2023-04-15T09:49:15;3.33;;;1.20;;
26303;SDS011;57113;48.680;8.890;2023-04-15T09:51:42;2.28;;;1.23;;
26303;SDS011;57113;48.680;8.890;2023-04-15T09:54:08;1.05;;;0.75;;
26303;SDS011;57113;48.680;8.890;2023-04-15T09:56:34;3.08;;;1.27;;
26303;SDS011;57113;48.680;8.890;2023-04-15T09:59:02;2.83;;;1.10;;
26303;SDS011;57113;48.680;8.890;2023-04-15T10:01:29;2.70;;;1.13;;
26303;SDS011;57113;48.680;8.890;2023-04-15T10:03:55;3.28;;;1.17;;
26303;SDS011;57113;48.680;8.890;2023-04-15T10:06:22;1.90;;;1.00;;
26303;SDS011;57113;48.680;8.890;2023-04-15T10:08:50;2.53;;;1.20;;
26303;SDS011;57113;48.680;8.890;2023-04-15T10:11:16;1.45;;;1.00;;
26303;SDS011;57113;48.680;8.890;2023-04-15T10:13:43;2.70;;;1.17;;
26303;SDS011;57113;48.680;8.890;2023-04-15T10:16:12;2.22;;;1.10;;
26303;SDS011;57113;48.680;8.890;2023-04-15T10:18:43;1.75;;;0.98;;
26303;SDS011;57113;48.680;8.890;2023-04-15T10:21:10;3.42;;;1.00;;
26303;SDS011;57113;48.680;8.890;2023-04-15T10:23:38;2.70;;;1.10;;
26303;SDS011;57113;48.680;8.890;2023-04-15T10:26:04;1.98;;;0.90;;
26303;SDS011;57113;48.680;8.890;2023-04-15T10:28:31;2.47;;;1.02;;
26303;SDS011;57113;48.680;8.890;2023-04-15T10:30:57;1.60;;;1.08;;
26303;SDS011;57113;48.680;8.890;2023-04-15T10:33:23;2.85;;;1.05;;
26303;SDS011;57113;48.680;8.890;2023-04-15T10:35:50;3.08;;;1.10;;
26303;SDS011;57113;48.680;8.890;2023-04-15T10:41:24;1.98;;;1.10;;
26303;SDS011;57113;48.680;8.890;2023-04-15T10:43:54;2.78;;;1.20;;
26303;SDS011;57113;48.680;8.890;2023-04-15T10:46:37;2.08;;;0.93;;
26303;SDS011;57113;48.680;8.890;2023-04-15T10:49:14;2.90;;;1.10;;
26303;SDS011;57113;48.680;8.890;2023-04-15T10:51:42;2.83;;;0.93;;
26303;SDS011;57113;48.680;8.890;2023-04-15T10:56:51;2.88;;;0.90;;
26303;SDS011;57113;48.680;8.890;2023-04-15T10:59:35;1.92;;;1.10;;
26303;SDS011;57113;48.680;8.890;2023-04-15T11:02:02;2.45;;;1.15;;
26303;SDS011;57113;48.680;8.890;2023-04-15T11:12:37;2.65;;;1.02;;
26303;SDS011;57113;48.680;8.890;2023-04-15T11:17:51;1.70;;;0.80;;
26303;SDS011;57113;48.680;8.890;2023-04-15T11:20:17;2.00;;;0.80;;
26303;SDS011;57113;48.680;8.890;2023-04-15T11:22:49;3.63;;;1.35;;
26303;SDS011;57113;48.680;8.890;2023-04-15T11:25:23;2.85;;;0.98;;
26303;SDS011;57113;48.680;8.890;2023-04-15T11:27:49;2.25;;;0.93;;
26303;SDS011;57113;48.680;8.890;2023-04-15T11:30:18;2.15;;;0.95;;
26303;SDS011;57113;48.680;8.890;2023-04-15T11:32:50;2.70;;;0.82;;
26303;SDS011;57113;48.680;8.890;2023-04-15T11:35:17;2.67;;;1.08;;
26303;SDS011;57113;48.680;8.890;2023-04-15T11:37:46;3.20;;;1.33;;
26303;SDS011;57113;48.680;8.890;2023-04-15T11:40:13;2.35;;;1.00;;
26303;SDS011;57113;48.680;8.890;2023-04-15T11:42:41;3.50;;;1.10;;
26303;SDS011;57113;48.680;8.890;2023-04-15T11:45:08;4.28;;;1.08;;
26303;SDS011;57113;48.680;8.890;2023-04-15T11:47:35;2.28;;;0.90;;
26303;SDS011;57113;48.680;8.890;2023-04-15T11:50:17;4.35;;;1.15;;
26303;SDS011;57113;48.680;8.890;2023-04-15T11:52:54;2.08;;;0.93;;
26303;SDS011;57113;48.680;8.890;2023-04-15T11:55:21;3.10;;;1.00;;
26303;SDS011;57113;48.680;8.890;2023-04-15T11:57:49;3.70;;;1.00;;
26303;SDS011;57113;48.680;8.890;2023-04-15T12:00:15;2.17;;;0.90;;
26303;SDS011;57113;48.680;8.890;2023-04-15T12:02:41;1.30;;;0.77;;
26303;SDS011;57113;48.680;8.890;2023-04-15T12:05:08;3.65;;;1.30;;
26303;SDS011;57113;48.680;8.890;2023-04-15T12:10:23;2.35;;;1.10;;
26303;SDS011;57113;48.680;8.890;2023-04-15T12:12:50;2.50;;;1.05;;
26303;SDS011;57113;48.680;8.890;2023-04-15T12:15:17;2.58;;;1.27;;
26303;SDS011;57113;48.680;8.890;2023-04-15T12:17:47;4.28;;;0.93;;
26303;SDS011;57113;48.680;8.890;2023-04-15T12:20:12;2.55;;;1.13;;
26303;SDS011;57113;48.680;8.890;2023-04-15T12:22:38;3.78;;;1.13;;
26303;SDS011;57113;48.680;8.890;2023-04-15T12:25:04;2.90;;;1.02;;
26303;SDS011;57113;48.680;8.890;2023-04-15T12:27:30;2.97;;;1.27;;
26303;SDS011;57113;48.680;8.890;2023-04-15T12:30:03;1.80;;;1.00;;
26303;SDS011;57113;48.680;8.890;2023-04-15T12:32:29;4.25;;;1.05;;
26303;SDS011;57113;48.680;8.890;2023-04-15T12:34:59;4.05;;;1.30;;
26303;SDS011;57113;48.680;8.890;2023-04-15T12:37:25;3.50;;;1.25;;
26303;SDS011;57113;48.680;8.890;2023-04-15T12:39:51;4.28;;;1.38;;
26303;SDS011;57113;48.680;8.890;2023-04-15T12:42:18;3.35;;;1.20;;
26303;SDS011;57113;48.680;8.890;2023-04-15T12:44:44;3.28;;;1.15;;
26303;SDS011;57113;48.680;8.890;2023-04-15T12:47:10;2.40;;;1.20;;
26303;SDS011;57113;48.680;8.890;2023-04-15T12:49:36;8.07;;;1.80;;
26303;SDS011;57113;48.680;8.890;2023-04-15T12:52:03;1.70;;;0.98;;
26303;SDS011;57113;48.680;8.890;2023-04-15T12:54:29;2.72;;;0.90;;
26303;SDS011;57113;48.680;8.890;2023-04-15T12:56:55;4.18;;;1.42;;
26303;SDS011;57113;48.680;8.890;2023-04-15T12:59:22;3.50;;;1.40;;
26303;SDS011;57113;48.680;8.890;2023-04-15T13:01:50;7.50;;;1.40;;
26303;SDS011;57113;48.680;8.890;2023-04-15T13:04:17;4.45;;;1.30;;
26303;SDS011;57113;48.680;8.890;2023-04-15T13:06:43;1.77;;;0.93;;
26303;SDS011;57113;48.680;8.890;2023-04-15T13:09:09;4.80;;;1.48;;
26303;SDS011;57113;48.680;8.890;2023-04-15T13:11:35;3.13;;;1.23;;
26303;SDS011;57113;48.680;8.890;2023-04-15T13:14:01;3.60;;;1.35;;
26303;SDS011;57113;48.680;8.890;2023-04-15T13:16:32;1.92;;;1.30;;
26303;SDS011;57113;48.680;8.890;2023-04-15T13:18:58;3.75;;;1.17;;
26303;SDS011;57113;48.680;8.890;2023-04-15T13:21:24;5.00;;;1.55;;
26303;SDS011;57113;48.680;8.890;2023-04-15T13:23:51;4.80;;;1.50;;
26303;SDS011;57113;48.680;8.890;2023-04-15T13:26:17;3.50;;;1.30;;
26303;SDS011;57113;48.680;8.890;2023-04-15T13:28:43;4.50;;;1.38;;
26303;SDS011;57113;48.680;8.890;2023-04-15T13:31:09;3.22;;;1.35;;
26303;SDS011;57113;48.680;8.890;2023-04-15T13:33:35;4.15;;;1.17;;
26303;SDS011;57113;48.680;8.890;2023-04-15T13:36:00;1.92;;;1.02;;
26303;SDS011;57113;48.680;8.890;2023-04-15T13:38:26;4.55;;;1.50;;
26303;SDS011;57113;48.680;8.890;2023-04-15T13:40:52;3.90;;;1.45;;
26303;SDS011;57113;48.680;8.890;2023-04-15T13:43:17;5.70;;;1.70;;
26303;SDS011;57113;48.680;8.890;2023-04-15T13:45:43;5.00;;;1.70;;
26303;SDS011;57113;48.680;8.890;2023-04-15T13:48:10;4.15;;;1.77;;
26303;SDS011;57113;48.680;8.890;2023-04-15T13:50:36;4.90;;;1.60;;
26303;SDS011;57113;48.680;8.890;2023-04-15T13:53:01;5.47;;;1.45;;
26303;SDS011;57113;48.680;8.890;2023-04-15T13:55:27;2.55;;;1.33;;
26303;SDS011;57113;48.680;8.890;2023-04-15T13:57:53;2.80;;;1.10;;
26303;SDS011;57113;48.680;8.890;2023-04-15T14:00:18;2.78;;;1.17;;
26303;SDS011;57113;48.680;8.890;2023-04-15T14:02:45;3.53;;;1.30;;
26303;SDS011;57113;48.680;8.890;2023-04-15T14:05:10;3.40;;;1.35;;
26303;SDS011;57113;48.680;8.890;2023-04-15T14:07:36;3.22;;;1.38;;
26303;SDS011;57113;48.680;8.890;2023-04-15T14:10:02;4.70;;;1.48;;
26303;SDS011;57113;48.680;8.890;2023-04-15T14:12:29;2.63;;;1.40;;
26303;SDS011;57113;48.680;8.890;2023-04-15T14:14:55;2.30;;;1.27;;
26303;SDS011;57113;48.680;8.890;2023-04-15T14:17:20;6.20;;;1.38;;
26303;SDS011;57113;48.680;8.890;2023-04-15T14:19:46;3.17;;;1.42;;
26303;SDS011;57113;48.680;8.890;2023-04-15T14:22:12;3.28;;;1.23;;
26303;SDS011;57113;48.680;8.890;2023-04-15T14:24:37;2.83;;;1.10;;
26303;SDS011;57113;48.680;8.890;2023-04-15T14:27:03;3.03;;;1.20;;
26303;SDS011;57113;48.680;8.890;2023-04-15T14:29:28;4.30;;;1.30;;
26303;SDS011;57113;48.680;8.890;2023-04-15T14:31:55;5.07;;;1.05;;
26303;SDS011;57113;48.680;8.890;2023-04-15T14:34:22;3.00;;;1.45;;
26303;SDS011;57113;48.680;8.890;2023-04-15T14:36:49;2.80;;;1.10;;
26303;SDS011;57113;48.680;8.890;2023-04-15T14:39:16;1.33;;;1.00;;
26303;SDS011;57113;48.680;8.890;2023-04-15T14:41:42;1.75;;;1.10;;
26303;SDS011;57113;48.680;8.890;2023-04-15T14:44:07;4.55;;;1.13;;
26303;SDS011;57113;48.680;8.890;2023-04-15T14:46:35;2.38;;;1.10;;
26303;SDS011;57113;48.680;8.890;2023-04-15T14:49:01;2.85;;;1.10;;
26303;SDS011;57113;48.680;8.890;2023-04-15T14:51:27;2.95;;;1.02;;
26303;SDS011;57113;48.680;8.890;2023-04-15T14:53:52;2.92;;;1.27;;
26303;SDS011;57113;48.680;8.890;2023-04-15T14:56:18;4.18;;;1.38;;
26303;SDS011;57113;48.680;8.890;2023-04-15T14:58:44;3.22;;;1.10;;
26303;SDS011;57113;48.680;8.890;2023-04-15T15:01:09;2.22;;;1.25;;
26303;SDS011;57113;48.680;8.890;2023-04-15T15:03:35;2.03;;;1.00;;
26303;SDS011;57113;48.680;8.890;2023-04-15T15:06:00;3.53;;;1.10;;